Time;durP1;ratioP1;P1;durP2;ratioP2;P2;SDS_P1;SDS_P2;PMS_P1;PMS_P2;Temp;Humidity;BMP_temperature;BMP_pressure;BME280_temperature;BME280_humidity;BME280_pressure;Samples;Min_cycle;Max_cycle;Signal;HPM_P1;HPM_P2
2023/08/25 00:01:19;;;;;;;12.38;8.05;;;19.00;99.90;;;18.54;100.00;97291.56;4959609;28;20055;-73
2023/08/25 00:03:48;;;;;;;10.73;7.72;;;19.00;99.90;;;18.54;100.00;97294.22;4964784;28;20081;-74
2023/08/25 00:06:15;;;;;;;10.70;7.53;;;19.00;99.90;;;18.57;100.00;97291.31;4964671;28;20523;-72
2023/08/25 00:08:43;;;;;;;11.20;8.07;;;19.10;99.90;;;18.60;100.00;97283.19;4967004;28;20069;-74
2023/08/25 00:11:10;;;;;;;15.63;7.53;;;19.00;99.90;;;18.58;100.00;97287.72;4964572;28;20122;-73
2023/08/25 00:13:51;;;;;;;9.18;6.93;;;19.00;99.90;;;18.56;100.00;97280.91;4960127;28;20090;-74
2023/08/25 00:16:18;;;;;;;17.33;7.68;;;19.00;99.90;;;18.38;100.00;97278.81;4965328;28;20249;-73
2023/08/25 00:18:45;;;;;;;14.27;7.75;;;18.80;99.90;;;18.26;100.00;97286.81;4963567;28;20269;-73
2023/08/25 00:21:14;;;;;;;14.02;8.38;;;18.70;99.90;;;18.18;100.00;97287.44;4962399;28;20051;-73
2023/08/25 00:23:54;;;;;;;10.25;8.23;;;18.60;99.90;;;18.16;100.00;97278.81;4965630;28;20051;-73
2023/08/25 00:26:21;;;;;;;9.25;8.23;;;18.50;99.90;;;18.16;100.00;97276.19;4964017;28;20537;-73
2023/08/25 00:28:48;;;;;;;13.18;9.18;;;18.50;99.90;;;18.17;100.00;97283.94;4965180;28;20105;-74
2023/08/25 00:31:15;;;;;;;10.68;7.97;;;18.50;99.90;;;18.30;100.00;97277.75;4963951;28;20065;-74
2023/08/25 00:33:52;;;;;;;11.18;7.63;;;18.50;99.90;;;18.30;100.00;97264.59;4963132;28;20050;-73
2023/08/25 00:36:21;;;;;;;8.68;7.00;;;18.60;99.90;;;18.28;100.00;97263.88;4963858;28;20046;-73
2023/08/25 00:38:52;;;;;;;10.13;8.07;;;18.60;99.90;;;18.39;100.00;97262.09;4960756;28;20043;-74
2023/08/25 00:41:19;;;;;;;10.60;6.82;;;18.70;99.90;;;18.49;100.00;97248.22;4964868;28;20697;-74
2023/08/25 00:43:47;;;;;;;11.98;7.25;;;18.80;99.90;;;18.43;100.00;97252.19;4965378;28;20082;-74
2023/08/25 00:46:16;;;;;;;13.23;7.63;;;18.80;99.90;;;18.45;100.00;97245.00;4978320;28;20075;-73
2023/08/25 00:48:43;;;;;;;12.90;7.10;;;18.80;99.90;;;18.47;100.00;97237.81;4958813;28;20165;-74
2023/08/25 00:51:12;;;;;;;10.65;7.25;;;18.80;99.90;;;18.54;100.00;97236.38;4962836;28;20043;-73
2023/08/25 00:53:42;;;;;;;13.82;7.55;;;18.90;99.90;;;18.57;100.00;97246.63;4960158;28;20793;-73
2023/08/25 00:56:11;;;;;;;12.13;7.38;;;19.00;99.90;;;18.53;100.00;97241.75;4949035;28;20058;-73
2023/08/25 00:58:38;;;;;;;10.52;7.78;;;19.00;99.90;;;18.48;100.00;97249.19;4962523;28;20070;-74
2023/08/25 01:01:06;;;;;;;9.80;7.47;;;19.00;99.90;;;18.43;100.00;97240.81;4964353;28;20047;-73
2023/08/25 01:03:38;;;;;;;10.38;7.15;;;18.90;99.90;;;18.42;100.00;97254.91;4948350;28;20047;-72
2023/08/25 01:06:06;;;;;;;9.00;5.97;;;18.90;99.90;;;18.44;100.00;97248.56;4961363;28;20043;-74
2023/08/25 01:08:33;;;;;;;9.80;6.68;;;18.90;99.90;;;18.45;100.00;97246.78;4950622;28;20049;-74
2023/08/25 01:11:21;;;;;;;8.77;5.75;;;18.90;99.90;;;18.51;100.00;97249.75;4963482;28;20055;-73
2023/08/25 01:14:13;;;;;;;11.35;6.00;;;18.80;99.90;;;18.44;100.00;97248.56;4975923;28;20047;-74
2023/08/25 01:16:57;;;;;;;8.95;5.95;;;18.80;99.90;;;18.41;100.00;97256.72;4962759;28;20594;-72
2023/08/25 01:19:58;;;;;;;12.98;6.70;;;18.80;99.90;;;18.47;100.00;97266.72;4965093;28;20511;-73
2023/08/25 01:22:48;;;;;;;10.38;6.05;;;18.70;99.90;;;18.45;100.00;97262.53;4966638;28;20055;-73
2023/08/25 01:25:37;;;;;;;11.82;6.45;;;18.70;99.90;;;18.34;100.00;97259.00;4965233;28;20043;-73
2023/08/25 01:28:05;;;;;;;9.95;6.25;;;18.70;99.90;;;18.42;100.00;97260.16;4960667;28;20046;-74
2023/08/25 01:30:35;;;;;;;7.97;6.13;;;18.70;99.90;;;18.42;100.00;97257.53;4964716;28;20051;-74
2023/08/25 01:33:03;;;;;;;6.85;5.10;;;18.80;99.90;;;18.49;100.00;97248.22;4981688;28;20062;-73
2023/08/25 01:36:16;;;;;;;7.93;5.03;;;18.80;99.90;;;18.54;100.00;97244.28;4962137;28;20047;-74
2023/08/25 01:38:57;;;;;;;6.63;4.70;;;18.90;99.90;;;18.53;100.00;97244.38;4974013;28;20432;-73
2023/08/25 01:41:34;;;;;;;5.18;4.28;;;18.90;99.90;;;18.68;100.00;97239.66;4964742;28;20134;-74
2023/08/25 01:44:03;;;;;;;8.45;5.38;;;18.90;99.90;;;18.72;100.00;97251.63;4960470;28;20058;-74
2023/08/25 01:46:33;;;;;;;8.32;4.32;;;18.90;99.90;;;18.73;100.00;97255.94;4966890;28;20464;-73
2023/08/25 01:49:02;;;;;;;9.63;5.22;;;18.90;99.90;;;18.60;100.00;97248.19;4977541;28;20059;-73
2023/08/25 01:51:29;;;;;;;7.60;5.30;;;19.00;99.90;;;18.64;100.00;97251.41;4979280;28;20054;-73
2023/08/25 01:53:57;;;;;;;6.88;4.68;;;19.00;99.90;;;18.59;100.00;97255.25;4964009;28;20043;-74
2023/08/25 01:56:24;;;;;;;6.80;4.70;;;19.00;99.90;;;18.47;100.00;97256.19;4961900;28;20101;-73
2023/08/25 01:58:52;;;;;;;13.48;6.35;;;19.00;99.90;;;18.47;100.00;97255.38;4978793;28;20153;-73
2023/08/25 02:01:19;;;;;;;7.88;5.15;;;19.00;99.90;;;18.49;100.00;97248.22;4964181;28;20094;-74
2023/08/25 02:03:46;;;;;;;9.82;5.53;;;18.90;99.90;;;18.50;100.00;97257.78;4978613;28;20133;-74
2023/08/25 02:06:13;;;;;;;6.55;4.30;;;18.90;99.90;;;18.44;100.00;97253.81;4965441;28;20432;-73
2023/08/25 02:08:41;;;;;;;9.07;4.65;;;18.80;99.90;;;18.51;100.00;97249.75;4979823;28;20126;-73
2023/08/25 02:11:08;;;;;;;6.75;4.50;;;18.90;99.90;;;18.48;100.00;97251.81;4963726;28;20055;-74
2023/08/25 02:13:35;;;;;;;6.25;5.07;;;18.90;99.90;;;18.51;100.00;97239.25;4960772;28;20133;-72
2023/08/25 02:16:03;;;;;;;8.20;4.90;;;18.90;99.90;;;18.54;100.00;97231.13;4964561;28;20054;-73
2023/08/25 02:18:30;;;;;;;9.40;4.05;;;19.00;99.90;;;18.42;100.00;97228.63;4962411;28;20051;-73
2023/08/25 02:20:57;;;;;;;8.38;4.75;;;19.00;99.90;;;18.33;100.00;97215.25;4977577;28;20079;-73
2023/08/25 02:23:24;;;;;;;6.43;4.65;;;18.90;99.90;;;18.29;100.00;97213.88;4948979;28;20476;-74
2023/08/25 02:25:52;;;;;;;7.43;5.00;;;18.90;99.90;;;18.41;100.00;97208.59;4964062;28;20055;-74
2023/08/25 02:28:19;;;;;;;7.80;4.38;;;18.90;99.90;;;18.38;100.00;97212.25;4980538;28;20492;-74
2023/08/25 02:30:46;;;;;;;8.57;5.13;;;18.90;99.90;;;18.29;100.00;97213.88;4965911;28;20082;-74
2023/08/25 02:33:13;;;;;;;6.22;4.55;;;18.90;99.90;;;18.39;100.00;97224.47;4980455;28;20051;-73
2023/08/25 02:35:41;;;;;;;7.57;4.05;;;18.90;99.90;;;18.38;100.00;97228.03;4954174;28;20113;-73
2023/08/25 02:38:10;;;;;;;11.13;4.20;;;19.00;99.90;;;18.45;100.00;97215.25;4967890;28;20047;-74
2023/08/25 02:40:38;;;;;;;5.75;4.00;;;18.90;99.90;;;18.52;100.00;97203.28;4964388;28;20527;-73
2023/08/25 02:43:08;;;;;;;8.15;4.00;;;19.00;99.90;;;18.49;100.00;97206.97;4966160;28;20047;-73
2023/08/25 02:45:36;;;;;;;6.32;3.88;;;19.00;99.90;;;18.46;100.00;97194.09;4967888;28;20126;-73
2023/08/25 02:48:04;;;;;;;7.15;4.28;;;19.00;99.90;;;18.41;100.00;97196.28;4965810;28;20043;-73
2023/08/25 02:50:33;;;;;;;10.50;5.55;;;18.90;99.90;;;18.22;100.00;97190.81;4980148;28;20090;-73
2023/08/25 02:53:00;;;;;;;7.13;5.43;;;18.80;99.90;;;18.22;100.00;97185.56;4966169;28;20470;-74
2023/08/25 02:55:27;;;;;;;8.63;5.07;;;18.60;99.90;;;18.13;100.00;97192.38;4966113;28;20838;-71
2023/08/25 02:57:54;;;;;;;10.07;5.80;;;18.50;99.90;;;17.97;100.00;97196.22;4966780;28;20480;-74
2023/08/25 03:00:25;;;;;;;12.00;6.82;;;18.40;99.90;;;17.93;100.00;97196.59;4968002;28;20057;-73
2023/08/25 03:02:53;;;;;;;8.57;5.10;;;18.30;99.90;;;17.94;100.00;97187.75;4964791;28;20163;-74
2023/08/25 03:05:25;;;;;;;9.20;5.43;;;18.30;99.90;;;18.06;100.00;97194.66;4968218;28;20777;-74
2023/08/25 03:07:53;;;;;;;9.70;5.05;;;18.30;99.90;;;18.01;100.00;97198.59;4951622;28;20105;-73
2023/08/25 03:10:21;;;;;;;7.20;4.53;;;18.30;99.90;;;18.01;100.00;97202.06;4965237;28;20553;-73
2023/08/25 03:12:49;;;;;;;9.50;5.22;;;18.30;99.90;;;18.05;100.00;97189.53;4965296;28;20105;-72
2023/08/25 03:15:16;;;;;;;7.55;4.15;;;18.40;99.90;;;18.14;100.00;97191.44;4965662;28;20077;-73
2023/08/25 03:17:44;;;;;;;10.50;3.95;;;18.50;99.90;;;18.21;100.00;97184.72;4965181;28;20063;-73
2023/08/25 03:20:11;;;;;;;8.07;4.20;;;18.60;99.90;;;18.31;100.00;97183.00;4966387;28;20416;-73
2023/08/25 03:22:38;;;;;;;6.40;4.30;;;18.70;99.90;;;18.26;100.00;97164.16;4965661;28;20063;-73
2023/08/25 03:25:06;;;;;;;9.05;4.07;;;18.70;99.90;;;18.28;100.00;97159.63;4966625;28;20043;-73
2023/08/25 03:27:34;;;;;;;8.40;4.10;;;18.70;99.90;;;18.37;100.00;97155.44;4981817;28;20078;-73
2023/08/25 03:30:04;;;;;;;5.55;4.10;;;18.70;99.90;;;18.34;100.00;97146.00;4966692;28;20134;-74
2023/08/25 03:32:32;;;;;;;6.93;4.88;;;18.70;99.90;;;18.37;100.00;97148.38;4980273;28;20479;-73
2023/08/25 03:34:59;;;;;;;7.00;4.07;;;18.70;99.90;;;18.27;100.00;97154.50;4965694;28;20062;-73
2023/08/25 03:37:26;;;;;;;8.75;4.55;;;18.60;99.90;;;18.35;100.00;97170.47;4968001;28;20156;-74
2023/08/25 03:39:53;;;;;;;6.47;4.28;;;18.60;99.90;;;18.25;100.00;97195.84;4966103;28;20078;-73
2023/08/25 03:42:20;;;;;;;7.68;4.53;;;18.50;99.90;;;18.46;100.00;97240.56;4966890;28;20149;-73
2023/08/25 03:44:48;;;;;;;10.05;5.50;;;18.40;99.90;;;18.46;100.00;97232.69;4964410;28;20055;-72
2023/08/25 03:47:15;;;;;;;7.40;5.05;;;18.50;99.90;;;18.60;100.00;97206.13;4961780;28;20595;-73
2023/08/25 03:49:42;;;;;;;11.73;5.40;;;18.70;99.90;;;18.61;100.00;97144.72;4960523;28;20078;-72
2023/08/25 03:52:09;;;;;;;28.13;7.18;;;18.80;99.90;;;18.44;100.00;97108.47;4974112;28;20125;-71
2023/08/25 03:54:36;;;;;;;11.95;5.97;;;18.70;99.90;;;18.39;100.00;97082.56;4965666;28;20054;-72
2023/08/25 03:57:06;;;;;;;6.53;4.03;;;18.60;99.90;;;18.37;100.00;97003.88;4967478;28;20070;-72
2023/08/25 03:59:33;;;;;;;9.07;4.95;;;18.50;99.90;;;18.37;100.00;97008.28;4982066;28;20042;-73
2023/08/25 04:02:01;;;;;;;12.45;5.30;;;18.50;99.90;;;18.34;100.00;97058.47;4966179;28;20127;-73
2023/08/25 04:04:32;;;;;;;9.07;4.82;;;18.40;99.90;;;18.27;100.00;97063.41;4967615;28;20055;-73
2023/08/25 04:06:59;;;;;;;8.57;4.32;;;18.40;99.90;;;18.47;100.00;97059.09;4967102;28;20504;-73
2023/08/25 04:09:26;;;;;;;12.07;5.18;;;18.40;99.90;;;18.38;100.00;97059.88;4967582;28;20065;-74
2023/08/25 04:11:55;;;;;;;9.27;5.00;;;18.40;99.90;;;18.31;100.00;97071.84;4964618;28;20295;-73
2023/08/25 04:14:23;;;;;;;9.32;4.95;;;18.40;99.90;;;18.30;100.00;97085.97;4967854;28;20817;-73
2023/08/25 04:16:50;;;;;;;10.77;5.32;;;18.40;99.90;;;18.30;100.00;97099.09;4964340;28;20082;-74
2023/08/25 04:19:21;;;;;;;11.57;5.32;;;18.40;99.90;;;18.28;100.00;97108.88;4967060;28;20046;-73
2023/08/25 04:21:49;;;;;;;7.65;3.60;;;18.40;99.90;;;18.35;100.00;97095.09;4967808;28;20058;-74
2023/08/25 04:24:17;;;;;;;5.90;3.55;;;18.40;99.90;;;18.42;100.00;97076.22;4968010;28;20047;-74
2023/08/25 04:26:45;;;;;;;8.18;3.53;;;18.50;99.90;;;18.48;100.00;97070.47;4958501;28;20059;-73
2023/08/25 04:29:15;;;;;;;7.15;4.65;;;18.50;99.90;;;18.44;100.00;97117.19;4966181;28;20047;-73
2023/08/25 04:31:43;;;;;;;9.18;4.70;;;18.60;99.90;;;18.46;100.00;97164.38;4966141;28;20081;-73
2023/08/25 04:34:10;;;;;;;12.07;6.20;;;18.50;99.90;;;18.26;100.00;97189.63;4963843;28;20047;-74
2023/08/25 04:36:39;;;;;;;10.90;5.60;;;18.40;99.90;;;18.20;100.00;97193.56;4967899;28;20480;-73
2023/08/25 04:39:06;;;;;;;10.05;4.38;;;18.40;99.90;;;18.26;100.00;97169.41;4966212;28;20536;-73
2023/08/25 04:41:33;;;;;;;9.00;4.65;;;18.40;99.90;;;18.26;100.00;97173.84;4966791;28;20153;-74
2023/08/25 04:44:01;;;;;;;6.03;3.88;;;18.50;99.90;;;18.29;100.00;97223.50;4967190;28;20141;-73
2023/08/25 04:46:29;;;;;;;12.18;5.82;;;18.40;99.90;;;18.23;100.00;97240.59;4962689;28;20055;-73
2023/08/25 04:48:57;;;;;;;12.60;6.22;;;18.40;99.90;;;18.26;100.00;97271.06;4963276;28;20043;-74
2023/08/25 04:51:24;;;;;;;9.98;5.35;;;18.30;99.90;;;18.24;100.00;97272.97;4962610;28;20532;-74
2023/08/25 04:53:51;;;;;;;10.15;5.82;;;18.40;99.90;;;18.29;100.00;97286.56;4962609;28;20414;-72
2023/08/25 04:56:18;;;;;;;9.25;4.93;;;18.30;99.90;;;18.32;100.00;97288.97;4964940;28;20156;-74
2023/08/25 04:58:45;;;;;;;11.52;5.85;;;18.40;99.90;;;18.37;100.00;97287.63;4964867;28;20085;-73
2023/08/25 05:01:13;;;;;;;11.15;4.85;;;18.50;99.90;;;18.37;100.00;97261.38;4964711;28;20050;-74
2023/08/25 05:03:42;;;;;;;9.27;5.55;;;18.50;99.90;;;18.29;100.00;97263.78;4963043;28;20055;-72
2023/08/25 05:06:09;;;;;;;11.02;6.05;;;18.50;99.90;;;18.29;100.00;97249.78;4965403;28;20050;-73
2023/08/25 05:08:36;;;;;;;16.00;5.78;;;18.50;99.90;;;18.27;100.00;97257.81;4966326;28;20520;-74
2023/08/25 05:11:04;;;;;;;13.75;5.45;;;18.50;99.90;;;18.29;100.00;97245.38;4963106;28;20049;-73
2023/08/25 05:13:31;;;;;;;9.65;5.65;;;18.50;99.90;;;18.30;100.00;97239.16;4949034;28;20050;-72
2023/08/25 05:15:58;;;;;;;9.63;5.38;;;18.50;99.90;;;18.31;100.00;97226.84;4964337;28;20507;-74
2023/08/25 05:18:25;;;;;;;8.80;5.28;;;18.50;99.90;;;18.31;100.00;97222.44;4960576;28;20050;-73
2023/08/25 05:21:00;;;;;;;16.17;5.95;;;18.50;99.90;;;18.39;100.00;97185.06;4959432;28;20070;-73
2023/08/25 05:23:27;;;;;;;10.45;4.72;;;18.50;99.90;;;18.36;100.00;97156.41;4960251;28;20055;-71
2023/08/25 05:25:55;;;;;;;7.55;4.43;;;18.60;99.90;;;18.35;100.00;97154.72;4976138;28;20464;-73
2023/08/25 05:28:23;;;;;;;6.50;4.70;;;18.60;99.90;;;18.38;100.00;97144.81;4962578;28;20667;-73
2023/08/25 05:30:52;;;;;;;11.45;4.55;;;18.60;99.90;;;18.43;100.00;97114.66;4959055;28;20134;-72
2023/08/25 05:33:19;;;;;;;9.13;4.15;;;18.50;99.90;;;18.47;100.00;97102.94;4959407;28;20487;-73
2023/08/25 05:35:46;;;;;;;9.90;4.43;;;18.60;99.90;;;18.44;100.00;97095.34;4964733;28;20055;-73
2023/08/25 05:38:13;;;;;;;7.90;4.03;;;18.60;99.90;;;18.45;100.00;97092.59;4948949;28;20102;-73
2023/08/25 05:40:41;;;;;;;7.05;3.42;;;18.60;99.90;;;18.45;100.00;97112.75;4962158;28;20093;-70
2023/08/25 05:43:09;;;;;;;8.20;4.22;;;18.50;99.90;;;18.49;100.00;97122.06;4963254;28;20055;-73
2023/08/25 05:45:36;;;;;;;10.75;4.18;;;18.50;99.90;;;18.45;100.00;97139.88;4945191;28;20488;-73
2023/08/25 05:48:04;;;;;;;9.30;4.57;;;18.40;99.90;;;18.45;100.00;97137.25;4961731;28;20468;-74
2023/08/25 05:50:32;;;;;;;9.30;4.75;;;18.40;99.90;;;18.45;100.00;97128.50;4953456;28;20078;-74
2023/08/25 05:53:00;;;;;;;7.85;4.50;;;18.50;99.90;;;18.48;100.00;97149.31;4959399;28;20289;-73
2023/08/25 05:55:28;;;;;;;11.00;5.65;;;18.60;99.90;;;18.50;100.00;97158.75;4933370;28;20223;-73
2023/08/25 05:57:55;;;;;;;5.40;3.75;;;18.60;99.90;;;18.57;100.00;97157.28;4961003;28;20066;-73
2023/08/25 06:00:22;;;;;;;8.02;5.00;;;18.70;99.90;;;18.63;100.00;97152.47;4946814;28;20054;-73
2023/08/25 06:02:49;;;;;;;8.30;3.70;;;18.70;99.90;;;18.75;100.00;97159.38;4963734;28;20096;-73
2023/08/25 06:05:16;;;;;;;8.70;4.43;;;18.80;99.90;;;18.72;100.00;97154.34;4967897;28;20142;-73
2023/08/25 06:07:44;;;;;;;7.32;3.65;;;18.80;99.90;;;18.58;100.00;97161.56;4967220;28;20504;-73
2023/08/25 06:10:14;;;;;;;7.05;4.25;;;18.80;99.90;;;18.52;100.00;97156.81;4951592;28;20050;-73
2023/08/25 06:12:41;;;;;;;9.02;3.80;;;18.70;99.90;;;18.58;100.00;97165.97;4965092;28;20577;-71
2023/08/25 06:15:09;;;;;;;6.80;4.20;;;18.70;99.90;;;18.55;100.00;97153.94;4967572;28;20086;-74
2023/08/25 06:17:36;;;;;;;8.13;3.88;;;18.70;99.90;;;18.56;100.00;97152.13;4962403;28;20114;-72
2023/08/25 06:20:04;;;;;;;7.65;3.80;;;18.70;99.90;;;18.63;100.00;97141.94;4963876;28;20046;-70
2023/08/25 06:22:31;;;;;;;8.88;3.85;;;18.70;99.90;;;18.66;100.00;97141.72;4983820;28;20615;-71
2023/08/25 06:24:58;;;;;;;10.32;3.30;;;18.80;99.90;;;18.67;100.00;97138.13;4966533;28;20043;-73
2023/08/25 06:27:25;;;;;;;6.22;3.70;;;18.80;99.90;;;18.76;100.00;97138.19;4967331;28;20070;-73
2023/08/25 06:29:52;;;;;;;7.63;3.25;;;18.90;99.90;;;18.78;100.00;97123.16;4967835;28;20764;-73
2023/08/25 06:32:20;;;;;;;7.40;3.30;;;18.90;99.90;;;18.86;100.00;97116.41;4966356;28;20120;-71
2023/08/25 06:34:51;;;;;;;5.20;2.00;;;19.00;99.90;;;18.92;100.00;97106.22;4967588;28;20141;-73
2023/08/25 06:37:18;;;;;;;5.40;2.63;;;19.10;99.90;;;18.84;100.00;97127.06;4953488;28;20680;-73
2023/08/25 06:39:47;;;;;;;5.03;2.30;;;19.10;99.90;;;18.81;100.00;97127.31;4951986;28;20089;-73
2023/08/25 06:42:14;;;;;;;5.80;3.17;;;19.00;99.90;;;18.75;100.00;97141.78;4965880;28;20124;-72
2023/08/25 06:44:41;;;;;;;6.82;2.78;;;19.00;99.90;;;18.79;100.00;97147.63;4966888;28;20740;-73
2023/08/25 06:47:08;;;;;;;6.95;3.22;;;18.90;99.90;;;18.67;100.00;97161.78;4965115;28;20832;-73
2023/08/25 06:49:35;;;;;;;10.15;3.67;;;18.90;99.90;;;18.71;100.00;97163.19;4951286;28;20046;-73
2023/08/25 06:52:03;;;;;;;9.13;3.92;;;18.90;99.90;;;18.83;100.00;97151.69;4964561;28;20051;-72
2023/08/25 06:54:30;;;;;;;7.50;3.38;;;18.80;99.90;;;18.88;100.00;97160.03;4966413;28;20139;-71
2023/08/25 06:56:57;;;;;;;6.40;2.92;;;18.80;99.90;;;18.82;100.00;97165.81;4951608;28;20113;-73
2023/08/25 06:59:24;;;;;;;5.50;2.50;;;18.80;99.90;;;18.99;100.00;97175.75;4965709;28;20130;-73
2023/08/25 07:01:51;;;;;;;8.73;2.70;;;18.90;99.90;;;19.00;100.00;97180.06;4966353;28;20526;-73
2023/08/25 07:04:19;;;;;;;6.32;2.75;;;18.90;99.90;;;19.08;100.00;97197.00;4966057;28;20063;-72
2023/08/25 07:06:46;;;;;;;8.90;3.35;;;19.00;99.90;;;19.20;100.00;97191.56;4979853;28;20452;-73
2023/08/25 07:09:13;;;;;;;6.90;1.98;;;19.10;99.90;;;19.46;100.00;97192.97;4964339;28;20055;-72
2023/08/25 07:11:42;;;;;;;5.68;2.25;;;19.30;99.90;;;19.61;100.00;97202.16;4963356;28;20059;-71
2023/08/25 07:14:09;;;;;;;5.97;2.35;;;19.30;99.90;;;19.42;100.00;97221.31;4964403;28;20043;-73
2023/08/25 07:16:37;;;;;;;4.88;2.45;;;19.40;99.90;;;19.43;100.00;97218.56;4964807;28;20065;-73
2023/08/25 07:19:04;;;;;;;5.32;2.53;;;19.40;99.90;;;19.44;100.00;97214.13;4966497;28;20152;-72
2023/08/25 07:21:32;;;;;;;4.95;2.08;;;19.60;99.90;;;19.57;100.00;97206.03;4962366;28;20051;-73
2023/08/25 07:23:59;;;;;;;4.28;2.13;;;19.70;99.90;;;19.65;100.00;97195.66;4963212;28;20193;-73
2023/08/25 07:26:26;;;;;;;5.57;2.75;;;19.80;99.90;;;19.73;100.00;97197.66;4963923;28;20043;-73
2023/08/25 07:28:53;;;;;;;3.80;2.28;;;19.80;99.90;;;19.78;100.00;97166.53;4963529;28;20480;-73
2023/08/25 07:31:21;;;;;;;4.60;2.33;;;20.00;99.90;;;19.85;100.00;97160.59;4964299;28;20046;-73
2023/08/25 07:33:48;;;;;;;5.82;2.42;;;20.10;99.90;;;19.81;100.00;97163.63;4965667;28;20051;-72
2023/08/25 07:36:18;;;;;;;6.28;2.13;;;20.10;99.90;;;20.10;100.00;97152.34;4966369;28;20097;-72
2023/08/25 07:38:45;;;;;;;8.93;2.55;;;20.20;99.90;;;20.11;100.00;97159.25;4963174;28;20570;-72
2023/08/25 07:41:15;;;;;;;7.55;2.70;;;20.20;99.90;;;19.95;100.00;97149.25;4960129;28;20085;-72
2023/08/25 07:43:43;;;;;;;9.98;2.78;;;20.20;99.90;;;20.05;100.00;97158.03;4964719;28;20051;-73
2023/08/25 07:46:13;;;;;;;5.03;2.80;;;20.20;99.90;;;20.02;100.00;97159.09;4961392;28;20046;-71
2023/08/25 07:48:40;;;;;;;4.95;2.50;;;20.30;99.90;;;20.29;100.00;97151.53;4963677;28;20047;-73
2023/08/25 07:51:07;;;;;;;7.18;2.20;;;20.40;99.90;;;20.31;100.00;97152.25;4963068;28;20106;-72
2023/08/25 07:53:34;;;;;;;6.85;2.92;;;20.50;99.90;;;20.35;100.00;97159.75;4964640;28;20058;-73
2023/08/25 07:56:03;;;;;;;4.32;2.35;;;20.50;99.90;;;20.39;100.00;97147.09;4963412;28;20066;-73
2023/08/25 07:58:30;;;;;;;4.40;2.33;;;20.50;99.90;;;20.38;100.00;97142.81;4965212;28;20134;-73
2023/08/25 08:00:57;;;;;;;4.85;2.10;;;20.50;99.90;;;20.35;100.00;97151.84;4946841;28;20510;-73
2023/08/25 08:03:24;;;;;;;6.47;2.50;;;20.60;99.90;;;20.45;100.00;97170.28;4964883;28;20055;-73
2023/08/25 08:05:51;;;;;;;10.02;2.53;;;20.70;99.90;;;20.71;100.00;97162.72;4962407;28;20133;-73
2023/08/25 08:08:18;;;;;;;4.57;2.00;;;20.80;99.90;;;20.93;100.00;97161.56;4964537;28;20104;-72
2023/08/25 08:10:45;;;;;;;5.32;2.05;;;21.00;99.90;;;20.97;100.00;97141.03;4964700;28;20055;-73
2023/08/25 08:13:12;;;;;;;5.38;2.10;;;21.10;99.90;;;21.07;100.00;97133.91;4964647;28;20047;-73
2023/08/25 08:15:39;;;;;;;9.10;1.75;;;21.10;99.90;;;21.38;100.00;97128.44;4965715;28;20129;-73
2023/08/25 08:18:07;;;;;;;3.67;1.95;;;21.20;99.90;;;21.71;100.00;97140.28;4965120;28;20059;-73
2023/08/25 08:20:34;;;;;;;3.13;1.40;;;21.40;99.90;;;21.76;100.00;97150.41;4964015;28;20059;-73
2023/08/25 08:23:01;;;;;;;4.32;1.70;;;21.60;99.90;;;21.82;100.00;97161.22;4958452;28;20050;-72
2023/08/25 08:25:30;;;;;;;6.80;1.52;;;21.80;99.90;;;21.75;100.00;97154.88;4946319;28;20054;-73
2023/08/25 08:28:01;;;;;;;4.07;1.30;;;21.90;99.90;;;22.10;100.00;97148.00;4966208;28;20046;-73
2023/08/25 08:30:28;;;;;;;2.42;1.30;;;22.10;99.90;;;22.31;100.00;97140.69;4952315;28;20046;-72
2023/08/25 08:32:55;;;;;;;4.30;1.35;;;22.10;99.90;;;22.41;100.00;97118.63;4954773;28;20516;-73
2023/08/25 08:35:22;;;;;;;4.18;1.30;;;22.70;99.90;;;22.61;100.00;97117.50;4963296;28;20055;-72
2023/08/25 08:37:49;;;;;;;3.35;1.30;;;23.10;99.90;;;22.78;100.00;97118.47;4964190;28;20062;-73
2023/08/25 08:40:20;;;;;;;4.15;1.40;;;23.30;99.90;;;22.68;100.00;97107.16;4964876;28;20047;-73
2023/08/25 08:42:52;;;;;;;2.50;1.10;;;23.40;99.90;;;22.75;100.00;97095.78;4963592;28;20063;-73
2023/08/25 08:45:24;;;;;;;2.95;1.10;;;23.50;99.90;;;22.57;100.00;97116.13;4957596;28;20050;-71
2023/08/25 08:47:51;;;;;;;6.97;1.50;;;23.30;99.90;;;22.53;100.00;97112.13;4961855;28;20054;-73
2023/08/25 08:50:23;;;;;;;2.55;1.13;;;23.10;99.90;;;22.66;100.00;97111.75;4961397;28;20051;-72
2023/08/25 08:52:50;;;;;;;4.32;1.40;;;23.10;99.90;;;22.57;100.00;97112.66;4964168;28;20110;-73
2023/08/25 08:55:20;;;;;;;3.97;1.67;;;22.80;99.90;;;22.14;100.00;97101.81;4945601;28;20418;-73
2023/08/25 08:57:49;;;;;;;3.50;1.52;;;22.80;99.90;;;22.16;100.00;97109.59;4958683;28;20451;-73
2023/08/25 09:00:21;;;;;;;3.28;1.40;;;22.60;99.90;;;22.36;100.00;97102.41;4973633;28;20106;-71
2023/08/25 09:02:53;;;;;;;3.83;1.20;;;22.70;99.90;;;21.88;100.00;97105.16;4962446;28;20061;-73
2023/08/25 09:05:27;;;;;;;4.78;1.52;;;22.60;99.90;;;22.09;100.00;97106.72;4960239;28;20317;-72
2023/08/25 09:08:01;;;;;;;5.70;1.40;;;22.60;99.90;;;22.13;100.00;97100.97;4961540;28;20050;-70
2023/08/25 09:10:29;;;;;;;3.88;1.40;;;22.50;99.90;;;22.28;100.00;97076.69;4962789;28;20555;-72
2023/08/25 09:12:57;;;;;;;2.70;1.15;;;22.60;99.90;;;22.17;100.00;97075.09;4963670;28;20130;-75
2023/08/25 09:15:27;;;;;;;4.15;1.65;;;22.60;99.90;;;22.10;100.00;97100.44;4964353;28;20079;-71
2023/08/25 09:18:08;;;;;;;5.05;1.40;;;22.50;99.90;;;21.76;100.00;97118.72;4962844;28;20169;-72
2023/08/25 09:20:38;;;;;;;7.97;1.80;;;22.20;99.90;;;21.67;100.00;97142.41;4962384;28;20054;-72
2023/08/25 09:23:08;;;;;;;5.55;1.60;;;22.10;99.90;;;21.89;100.00;97138.53;4963419;28;20042;-72
2023/08/25 09:25:39;;;;;;;3.50;1.63;;;22.20;99.90;;;21.91;100.00;97135.75;4977540;28;20058;-72
2023/08/25 09:28:07;;;;;;;4.00;1.90;;;22.20;99.90;;;21.95;100.00;97136.28;4960880;28;20054;-72
2023/08/25 09:30:38;;;;;;;5.53;1.85;;;22.20;99.90;;;22.25;100.00;97138.63;4964937;28;20055;-71
2023/08/25 09:33:08;;;;;;;3.50;1.65;;;22.50;99.90;;;22.39;100.00;97134.66;4962415;28;20047;-72
2023/08/25 09:35:36;;;;;;;3.67;1.60;;;22.50;99.90;;;22.35;100.00;97133.28;4977486;28;20496;-73
2023/08/25 09:38:03;;;;;;;3.65;1.58;;;22.50;99.90;;;22.54;100.00;97133.16;4948923;28;20047;-72
2023/08/25 09:40:31;;;;;;;4.10;1.33;;;22.60;99.90;;;22.69;100.00;97128.16;4965567;28;20062;-72
2023/08/25 09:43:00;;;;;;;4.75;1.70;;;22.80;99.90;;;22.84;100.00;97117.03;4964726;28;20729;-73
2023/08/25 09:45:28;;;;;;;3.72;1.65;;;23.10;99.90;;;22.66;100.00;97120.50;4963447;28;20824;-72
2023/08/25 09:48:10;;;;;;;3.95;1.60;;;23.10;99.90;;;22.90;100.00;97109.31;4966322;28;20057;-73
2023/08/25 09:50:44;;;;;;;4.28;2.03;;;23.30;99.90;;;22.93;100.00;97113.47;4964405;28;20109;-72
2023/08/25 09:53:13;;;;;;;3.78;1.83;;;23.30;99.90;;;22.78;100.00;97115.81;4963793;28;20110;-72
2023/08/25 09:55:41;;;;;;;2.22;1.40;;;23.20;99.90;;;22.83;100.00;97099.47;4979249;28;20046;-73
2023/08/25 09:58:11;;;;;;;2.60;1.40;;;23.10;99.90;;;22.65;100.00;97118.88;4963956;28;20057;-72
2023/08/25 10:00:40;;;;;;;8.68;1.77;;;23.00;99.90;;;22.43;100.00;97125.44;4952305;28;20066;-73
2023/08/25 10:03:09;;;;;;;5.75;1.80;;;23.00;99.90;;;22.57;100.00;97134.66;4966645;28;20055;-71
2023/08/25 10:05:38;;;;;;;3.17;1.55;;;22.90;99.90;;;22.61;100.00;97128.09;4962917;28;20487;-72
2023/08/25 10:08:10;;;;;;;4.38;1.70;;;23.10;99.90;;;22.41;100.00;97135.34;4963827;28;20105;-72
2023/08/25 10:10:39;;;;;;;6.47;2.22;;;23.10;99.90;;;22.33;100.00;97132.63;4967785;28;20504;-73
2023/08/25 10:13:08;;;;;;;5.18;2.13;;;23.00;99.90;;;22.38;100.00;97145.41;4982651;28;20062;-73
2023/08/25 10:15:37;;;;;;;6.25;2.20;;;23.00;99.90;;;22.62;100.00;97139.50;4967536;28;20082;-73
2023/08/25 10:18:06;;;;;;;3.88;1.95;;;23.00;99.90;;;22.52;100.00;97150.97;4966941;28;20439;-72